createdAt,value
2023-03-31T00:01:00.659Z,88.93
2023-03-31T00:02:13.431Z,88.90
2023-03-31T00:03:22.790Z,89.02
2023-03-31T00:04:45.669Z,89.06
2023-03-31T00:05:48.773Z,89.08
2023-03-31T00:06:54.668Z,89.08
2023-03-31T00:08:01.216Z,89.10
2023-03-31T00:09:19.018Z,89.29
2023-03-31T00:10:22.542Z,89.20
2023-03-31T00:11:25.599Z,89.24
2023-03-31T00:12:28.687Z,89.22
2023-03-31T00:13:31.781Z,89.18
2023-03-31T00:14:34.591Z,89.30
2023-03-31T00:15:37.511Z,89.26
2023-03-31T00:16:40.574Z,89.40
2023-03-31T00:17:43.555Z,89.40
2023-03-31T00:18:47.645Z,89.39
2023-03-31T00:19:50.752Z,89.19
2023-03-31T00:20:54.607Z,89.15
2023-03-31T00:22:02.018Z,89.27
2023-03-31T00:23:10.778Z,89.29
2023-03-31T00:24:15.478Z,89.24
2023-03-31T00:25:18.227Z,89.24
2023-03-31T00:26:22.758Z,89.28
2023-03-31T00:27:25.549Z,89.31
2023-03-31T00:28:28.376Z,89.42
2023-03-31T00:29:31.622Z,89.40
2023-03-31T00:30:34.848Z,89.46
2023-03-31T00:31:39.014Z,89.45
2023-03-31T00:32:42.264Z,89.43
2023-03-31T00:33:45.320Z,89.34
2023-03-31T00:34:48.071Z,89.39
2023-03-31T00:35:55.794Z,89.42
2023-03-31T00:37:02.634Z,89.36
2023-03-31T00:38:06.048Z,89.45
2023-03-31T00:39:09.936Z,89.34
2023-03-31T00:40:12.693Z,89.36
2023-03-31T00:41:16.163Z,89.36
2023-03-31T00:42:18.957Z,89.33
2023-03-31T00:43:34.264Z,89.21
2023-03-31T00:44:59.876Z,89.21
2023-03-31T00:46:15.637Z,89.23
2023-03-31T00:47:21.097Z,89.22
2023-03-31T00:48:24.307Z,89.26
2023-03-31T00:49:34.560Z,89.25
2023-03-31T00:50:53.132Z,89.21
2023-03-31T00:52:02.587Z,89.29
2023-03-31T00:53:14.530Z,89.29
2023-03-31T00:54:19.589Z,89.35
2023-03-31T00:55:28.472Z,89.36
2023-03-31T00:56:39.203Z,89.39
2023-03-31T00:57:44.657Z,89.40
2023-03-31T00:58:49.950Z,89.32
2023-03-31T00:59:58.043Z,89.32
2023-03-31T01:01:03.506Z,89.30
2023-03-31T01:02:07.653Z,89.27
2023-03-31T01:03:11.238Z,89.24
2023-03-31T01:04:16.452Z,89.20
2023-03-31T01:05:22.375Z,89.37
2023-03-31T01:06:25.887Z,89.33
2023-03-31T01:07:40.357Z,89.28
2023-03-31T01:08:43.964Z,89.24
2023-03-31T01:09:48.193Z,89.30
2023-03-31T01:10:55.030Z,89.31
2023-03-31T01:11:58.244Z,89.31
2023-03-31T01:13:01.324Z,89.36
2023-03-31T01:14:06.267Z,89.39
2023-03-31T01:15:10.124Z,89.24
2023-03-31T01:16:12.937Z,89.20
2023-03-31T01:17:22.268Z,89.20
2023-03-31T01:18:29.251Z,89.22
2023-03-31T01:19:42.741Z,89.18
2023-03-31T01:21:03.924Z,89.20
2023-03-31T01:22:27.124Z,89.27
2023-03-31T01:23:56.182Z,89.28
2023-03-31T01:25:18.721Z,89.25
2023-03-31T01:26:43.095Z,89.27
2023-03-31T01:27:54.923Z,89.30
2023-03-31T01:29:03.753Z,89.27
2023-03-31T01:30:33.714Z,89.26
2023-03-31T01:31:54.496Z,89.27
2023-03-31T01:33:27.617Z,89.39
2023-03-31T01:34:58.002Z,89.38
2023-03-31T01:36:38.216Z,89.46
2023-03-31T01:38:09.169Z,89.43
2023-03-31T01:39:36.416Z,89.47
2023-03-31T01:41:02.057Z,89.41
2023-03-31T01:42:32.941Z,89.44
2023-03-31T01:44:01.912Z,89.47
2023-03-31T01:45:30.993Z,89.51
2023-03-31T01:46:58.499Z,89.48
2023-03-31T01:48:18.273Z,89.43
2023-03-31T01:49:48.076Z,89.44
2023-03-31T01:50:52.212Z,89.53
2023-03-31T01:52:06.794Z,89.55
2023-03-31T01:53:21.498Z,89.53
2023-03-31T01:54:33.252Z,89.53
2023-03-31T01:55:41.209Z,89.48
2023-03-31T01:56:52.790Z,89.53
2023-03-31T01:58:02.778Z,89.53
2023-03-31T01:59:17.185Z,89.53
2023-03-31T02:00:30.058Z,89.51
2023-03-31T02:01:47.200Z,89.52
2023-03-31T02:03:10.838Z,89.55
2023-03-31T02:04:22.727Z,89.57
2023-03-31T02:05:45.361Z,89.59
2023-03-31T02:06:56.262Z,89.61
2023-03-31T02:08:05.914Z,89.59
2023-03-31T02:09:19.926Z,89.59
2023-03-31T02:13:39.252Z,89.62
2023-03-31T02:14:46.667Z,89.72
2023-03-31T02:15:58.022Z,89.77
2023-03-31T02:17:03.954Z,89.63
2023-03-31T02:18:11.437Z,89.64
2023-03-31T02:19:19.237Z,89.74
2023-03-31T02:20:23.408Z,89.81
2023-03-31T02:21:27.146Z,89.69
2023-03-31T02:22:34.159Z,89.79
2023-03-31T02:23:38.530Z,89.85
2023-03-31T02:24:43.092Z,89.86
2023-03-31T02:25:52.157Z,89.79
2023-03-31T02:27:11.176Z,89.76
2023-03-31T02:28:21.447Z,89.74
2023-03-31T02:29:24.464Z,89.73
2023-03-31T02:30:46.178Z,89.76
2023-03-31T02:31:55.264Z,89.72
2023-03-31T02:32:59.935Z,89.72
2023-03-31T02:34:03.023Z,89.67
2023-03-31T02:35:12.635Z,89.80
2023-03-31T02:36:16.650Z,89.82
2023-03-31T02:37:19.643Z,89.88
2023-03-31T02:38:22.776Z,89.81
2023-03-31T02:39:30.775Z,89.76
2023-03-31T02:40:33.948Z,89.70
2023-03-31T02:41:37.772Z,89.70
2023-03-31T02:42:42.340Z,89.71
2023-03-31T02:43:45.396Z,89.72
2023-03-31T02:44:48.768Z,89.66
2023-03-31T02:45:51.909Z,89.75
2023-03-31T02:46:54.893Z,89.68
2023-03-31T02:47:57.990Z,89.67
2023-03-31T02:49:03.359Z,89.72
2023-03-31T02:50:07.185Z,89.67
2023-03-31T02:51:33.553Z,89.69
2023-03-31T02:53:01.744Z,89.63
2023-03-31T02:54:19.887Z,89.63
2023-03-31T02:56:07.268Z,89.67
2023-03-31T02:58:00.958Z,89.82
2023-03-31T02:59:21.368Z,89.88
2023-03-31T03:00:36.636Z,89.89
2023-03-31T03:02:00.858Z,89.87
2023-03-31T03:03:23.002Z,89.84
2023-03-31T03:04:29.856Z,89.87
2023-03-31T03:06:08.515Z,89.90
2023-03-31T03:07:31.748Z,89.81
2023-03-31T03:08:55.795Z,89.92
2023-03-31T03:10:15.463Z,89.86
2023-03-31T03:11:33.555Z,89.88
2023-03-31T03:13:04.134Z,89.91
2023-03-31T03:14:15.863Z,89.90
2023-03-31T03:15:26.601Z,89.95
2023-03-31T03:16:35.720Z,89.99
2023-03-31T03:17:45.675Z,89.99
2023-03-31T03:19:09.136Z,89.92
2023-03-31T03:20:14.413Z,89.98
2023-03-31T03:21:17.294Z,90.00
2023-03-31T03:22:20.764Z,90.02
2023-03-31T03:23:23.662Z,89.99
2023-03-31T03:24:29.697Z,89.96
2023-03-31T03:25:34.261Z,90.04
2023-03-31T03:26:37.190Z,90.02
2023-03-31T03:27:40.895Z,89.94
2023-03-31T03:28:43.810Z,90.17
2023-03-31T03:29:47.657Z,90.04
2023-03-31T03:30:50.602Z,90.01
2023-03-31T03:31:54.270Z,90.04
2023-03-31T03:32:58.979Z,89.98
2023-03-31T03:34:01.953Z,90.07
2023-03-31T03:35:06.833Z,90.06
2023-03-31T03:36:10.510Z,89.97
2023-03-31T03:37:13.414Z,89.96
2023-03-31T03:38:16.280Z,89.93
2023-03-31T03:39:19.250Z,89.92
2023-03-31T03:40:22.222Z,90.00
2023-03-31T03:41:25.203Z,90.02
2023-03-31T03:42:28.170Z,90.02
2023-03-31T03:43:31.191Z,90.02
2023-03-31T03:44:34.043Z,90.13
2023-03-31T03:45:37.044Z,90.13
2023-03-31T03:46:39.916Z,89.96
2023-03-31T03:47:42.841Z,90.08
2023-03-31T03:48:46.396Z,90.12
2023-03-31T03:49:49.485Z,90.01
2023-03-31T03:50:54.300Z,90.07
2023-03-31T03:51:57.229Z,90.17
2023-03-31T03:53:00.410Z,90.29
2023-03-31T03:54:03.270Z,90.28
2023-03-31T03:55:06.805Z,90.10
2023-03-31T03:56:09.763Z,90.13
2023-03-31T03:57:12.709Z,90.36
2023-03-31T03:58:17.222Z,90.30
2023-03-31T03:59:20.071Z,90.22
2023-03-31T04:00:23.132Z,90.26
2023-03-31T04:01:26.133Z,90.22
2023-03-31T04:02:29.322Z,90.30
2023-03-31T04:03:32.405Z,90.39
2023-03-31T04:04:35.318Z,90.50
2023-03-31T04:05:38.362Z,90.43
2023-03-31T04:06:41.248Z,90.34
2023-03-31T04:07:44.130Z,90.44
2023-03-31T04:08:47.031Z,90.46
2023-03-31T04:09:50.028Z,90.34
2023-03-31T04:10:52.955Z,90.31
2023-03-31T04:11:55.941Z,90.30
2023-03-31T04:12:58.784Z,90.43
2023-03-31T04:14:01.774Z,90.47
2023-03-31T04:15:05.613Z,90.55
2023-03-31T04:16:08.768Z,90.56
2023-03-31T04:17:16.147Z,90.40
2023-03-31T04:18:22.981Z,90.62
2023-03-31T04:19:27.611Z,90.63
2023-03-31T04:20:30.797Z,90.55
2023-03-31T04:21:36.619Z,90.43
2023-03-31T04:22:42.475Z,90.45
2023-03-31T04:23:48.083Z,90.51
2023-03-31T04:24:52.832Z,90.75
2023-03-31T04:25:55.746Z,90.66
2023-03-31T04:27:00.157Z,90.66
2023-03-31T04:28:03.133Z,90.85
2023-03-31T04:29:07.643Z,90.78
2023-03-31T04:30:11.763Z,90.74
2023-03-31T04:31:25.670Z,90.94
2023-03-31T04:32:33.167Z,90.85
2023-03-31T04:33:39.956Z,90.92
2023-03-31T04:34:46.624Z,90.83
2023-03-31T04:35:49.857Z,91.11
2023-03-31T04:36:56.292Z,91.07
2023-03-31T04:37:59.407Z,91.14
2023-03-31T04:39:02.304Z,91.20
2023-03-31T04:40:08.776Z,91.13
2023-03-31T04:41:11.929Z,91.23
2023-03-31T04:42:15.086Z,91.30
2023-03-31T04:43:19.832Z,91.14
2023-03-31T04:44:22.905Z,91.24
2023-03-31T04:45:25.955Z,91.48
2023-03-31T04:46:28.873Z,91.43
2023-03-31T04:47:31.871Z,91.28
2023-03-31T04:48:35.807Z,91.34
2023-03-31T04:49:38.698Z,91.41
2023-03-31T04:50:41.585Z,91.40
2023-03-31T04:51:45.035Z,91.35
2023-03-31T04:52:47.894Z,91.36
2023-03-31T04:53:50.817Z,91.34
2023-03-31T04:54:54.139Z,91.33
2023-03-31T04:55:57.744Z,91.31
2023-03-31T04:57:00.832Z,91.41
2023-03-31T04:58:03.987Z,91.42
2023-03-31T04:59:08.527Z,91.28
2023-03-31T05:00:12.139Z,91.44
2023-03-31T05:01:18.309Z,91.46
2023-03-31T05:02:25.199Z,91.54
2023-03-31T05:03:28.770Z,91.63
2023-03-31T05:04:31.707Z,91.46
2023-03-31T05:05:34.621Z,91.57
2023-03-31T05:06:37.476Z,91.48
2023-03-31T05:07:40.616Z,91.44
2023-03-31T05:08:44.829Z,91.56
2023-03-31T05:09:47.733Z,91.61
2023-03-31T05:10:50.789Z,91.50
2023-03-31T05:11:53.758Z,91.42
2023-03-31T05:12:56.942Z,91.57
2023-03-31T05:13:59.965Z,91.54
2023-03-31T05:15:05.645Z,91.55
2023-03-31T05:16:14.842Z,91.30
2023-03-31T05:17:18.017Z,91.52
2023-03-31T05:18:21.050Z,91.50
2023-03-31T05:19:24.009Z,91.37
2023-03-31T05:20:26.898Z,91.51
2023-03-31T05:21:31.319Z,91.47
2023-03-31T05:22:36.083Z,91.34
2023-03-31T05:23:39.140Z,91.42
2023-03-31T05:24:41.979Z,91.42
2023-03-31T05:25:45.069Z,91.45
2023-03-31T05:26:52.806Z,91.51
2023-03-31T05:27:56.768Z,91.47
2023-03-31T05:28:59.682Z,91.56
2023-03-31T05:30:04.083Z,91.42
2023-03-31T05:31:08.771Z,91.55
2023-03-31T05:32:11.841Z,91.54
2023-03-31T05:33:14.850Z,91.56
2023-03-31T05:34:17.776Z,91.54
2023-03-31T05:35:20.657Z,91.48
2023-03-31T05:36:23.992Z,91.56
2023-03-31T05:37:27.228Z,91.50
2023-03-31T05:38:31.629Z,91.49
2023-03-31T05:39:34.606Z,91.48
2023-03-31T05:40:37.480Z,91.49
2023-03-31T05:41:41.011Z,91.62
2023-03-31T05:42:43.938Z,91.62
2023-03-31T05:43:47.496Z,91.56
2023-03-31T05:44:50.609Z,91.51
2023-03-31T05:45:53.494Z,91.48
2023-03-31T05:46:56.517Z,91.58
2023-03-31T05:47:59.963Z,91.49
2023-03-31T05:49:02.929Z,91.45
2023-03-31T05:50:09.199Z,91.51
2023-03-31T05:51:37.978Z,91.61
2023-03-31T05:53:35.230Z,91.66
2023-03-31T05:55:09.173Z,91.71
2023-03-31T05:56:16.350Z,91.83
2023-03-31T05:57:19.273Z,91.77
2023-03-31T05:58:22.168Z,91.86
2023-03-31T05:59:25.072Z,91.96
2023-03-31T06:00:27.942Z,91.78
2023-03-31T06:01:30.930Z,91.75
2023-03-31T06:02:34.008Z,91.73
2023-03-31T06:03:41.458Z,91.73
2023-03-31T06:04:44.523Z,91.77
2023-03-31T06:05:49.205Z,91.81
2023-03-31T06:06:52.163Z,91.64
2023-03-31T06:07:55.025Z,91.87
2023-03-31T06:08:58.015Z,91.69
2023-03-31T06:10:00.973Z,91.53
2023-03-31T06:11:08.778Z,91.31
2023-03-31T06:12:11.869Z,91.12
2023-03-31T06:13:14.703Z,91.02
2023-03-31T06:14:18.162Z,91.01
2023-03-31T06:15:21.005Z,90.98
2023-03-31T06:16:23.900Z,90.91
2023-03-31T06:17:26.848Z,90.95
2023-03-31T06:18:32.277Z,90.71
2023-03-31T06:19:35.377Z,90.75
2023-03-31T06:20:38.222Z,90.67
2023-03-31T06:21:41.325Z,90.77
2023-03-31T06:22:44.226Z,90.78
2023-03-31T06:23:47.381Z,90.63
2023-03-31T06:24:50.396Z,90.72
2023-03-31T06:25:54.016Z,90.59
2023-03-31T06:26:56.965Z,90.66
2023-03-31T06:27:59.810Z,90.42
2023-03-31T06:29:02.883Z,90.42
2023-03-31T06:30:06.534Z,90.24
2023-03-31T06:31:12.794Z,90.40
2023-03-31T06:32:15.865Z,90.44
2023-03-31T06:33:18.723Z,90.50
2023-03-31T06:34:22.146Z,90.43
2023-03-31T06:35:24.981Z,90.20
2023-03-31T06:36:27.912Z,90.26
2023-03-31T06:37:31.112Z,90.48
2023-03-31T06:38:36.538Z,90.39
2023-03-31T06:39:39.385Z,90.25
2023-03-31T06:40:42.628Z,90.15
2023-03-31T06:41:46.102Z,90.15
2023-03-31T06:42:54.571Z,90.18
2023-03-31T06:43:57.978Z,90.26
2023-03-31T06:45:00.820Z,90.19
2023-03-31T06:46:04.572Z,90.06
2023-03-31T06:47:07.573Z,90.20
2023-03-31T06:48:10.447Z,90.12
2023-03-31T06:49:13.484Z,90.17
2023-03-31T06:50:16.509Z,90.12
2023-03-31T06:51:19.898Z,90.18
2023-03-31T06:52:22.759Z,90.14
2023-03-31T06:53:25.862Z,90.16
2023-03-31T06:54:28.768Z,90.06
2023-03-31T06:55:33.888Z,90.07
2023-03-31T06:56:36.746Z,89.92
2023-03-31T06:57:39.566Z,89.81
2023-03-31T06:58:42.396Z,89.73
2023-03-31T06:59:45.264Z,89.85
2023-03-31T07:00:48.405Z,89.79
2023-03-31T07:01:51.374Z,89.83
2023-03-31T07:02:55.035Z,89.73
2023-03-31T07:03:57.991Z,89.69
2023-03-31T07:05:00.934Z,89.68
2023-03-31T07:06:03.827Z,89.64
2023-03-31T07:07:06.906Z,89.83
2023-03-31T07:08:09.919Z,90.02
2023-03-31T07:09:12.752Z,89.93
2023-03-31T07:10:15.631Z,89.97
2023-03-31T07:11:21.041Z,89.88
2023-03-31T07:12:24.627Z,89.85
2023-03-31T07:13:28.467Z,89.64
2023-03-31T07:14:32.450Z,89.79
2023-03-31T07:15:35.672Z,89.63
2023-03-31T07:16:38.655Z,89.69
2023-03-31T07:17:44.584Z,89.60
2023-03-31T07:18:47.469Z,89.54
2023-03-31T07:19:50.285Z,89.38
2023-03-31T07:20:53.767Z,89.23
2023-03-31T07:21:56.734Z,89.07
2023-03-31T07:23:00.470Z,89.01
2023-03-31T07:24:04.907Z,88.93
2023-03-31T07:25:09.924Z,88.81
2023-03-31T07:26:13.839Z,88.69
2023-03-31T07:27:16.825Z,88.43
2023-03-31T07:28:20.938Z,88.37
2023-03-31T07:29:23.967Z,88.25
2023-03-31T07:30:27.819Z,88.17
2023-03-31T07:31:31.372Z,88.21
2023-03-31T07:32:39.741Z,88.05
2023-03-31T07:33:42.724Z,87.95
2023-03-31T07:34:46.134Z,88.08
2023-03-31T07:36:00.233Z,88.03
2023-03-31T07:37:06.754Z,88.03
2023-03-31T07:38:11.096Z,88.07
2023-03-31T07:39:14.066Z,88.09
2023-03-31T07:40:21.446Z,87.84
2023-03-31T07:41:25.187Z,87.86
2023-03-31T07:42:28.256Z,87.93
2023-03-31T07:43:31.501Z,88.02
2023-03-31T07:44:35.869Z,87.70
2023-03-31T07:45:40.456Z,87.82
2023-03-31T07:46:43.440Z,87.69
2023-03-31T07:47:48.121Z,87.67
2023-03-31T07:48:51.586Z,87.51
2023-03-31T07:49:54.639Z,87.76
2023-03-31T07:50:58.597Z,87.55
2023-03-31T07:52:07.107Z,87.45
2023-03-31T07:53:10.243Z,87.40
2023-03-31T07:54:13.220Z,87.43
2023-03-31T07:55:16.792Z,87.42
2023-03-31T07:56:22.308Z,87.31
2023-03-31T07:57:25.849Z,87.36
2023-03-31T07:58:29.252Z,87.37
2023-03-31T07:59:32.151Z,87.45
2023-03-31T08:00:36.051Z,87.43
2023-03-31T08:01:40.140Z,87.53
2023-03-31T08:02:43.746Z,87.50
2023-03-31T08:03:49.162Z,87.48
2023-03-31T08:04:52.185Z,87.42
2023-03-31T08:05:55.298Z,87.32
2023-03-31T08:07:03.148Z,87.46
2023-03-31T08:08:07.337Z,87.32
2023-03-31T08:09:10.319Z,87.33
2023-03-31T08:10:18.523Z,87.24
2023-03-31T08:11:21.769Z,87.18
2023-03-31T08:12:24.845Z,87.11
2023-03-31T08:13:27.719Z,86.93
2023-03-31T08:14:40.487Z,87.00
2023-03-31T08:15:45.941Z,87.12
2023-03-31T08:16:48.979Z,87.26
2023-03-31T08:17:53.041Z,87.23
2023-03-31T08:18:56.026Z,87.12
2023-03-31T08:20:02.786Z,86.97
2023-03-31T08:21:12.312Z,86.70
2023-03-31T08:22:15.598Z,86.84
2023-03-31T08:23:18.674Z,86.82
2023-03-31T08:24:22.865Z,86.64
2023-03-31T08:25:25.939Z,86.46
2023-03-31T08:26:32.012Z,86.33
2023-03-31T08:27:40.445Z,86.28
2023-03-31T08:28:43.358Z,86.33
2023-03-31T08:29:46.214Z,86.47
2023-03-31T08:30:50.109Z,86.61
2023-03-31T08:31:54.641Z,86.65
2023-03-31T08:32:57.612Z,86.79
2023-03-31T08:34:03.092Z,86.64
2023-03-31T08:35:06.806Z,86.56
2023-03-31T08:36:11.141Z,86.71
2023-03-31T08:37:14.149Z,86.89
2023-03-31T08:38:17.005Z,86.80
2023-03-31T08:39:19.934Z,86.77
2023-03-31T08:40:26.077Z,86.46
2023-03-31T08:41:50.360Z,86.17
2023-03-31T08:43:02.514Z,86.28
2023-03-31T08:44:11.585Z,86.23
2023-03-31T08:45:22.664Z,86.16
2023-03-31T08:46:29.729Z,85.43
2023-03-31T08:47:36.766Z,85.22
2023-03-31T08:48:48.987Z,85.27
2023-03-31T08:49:59.401Z,84.98
2023-03-31T08:51:16.178Z,84.55
2023-03-31T08:52:36.894Z,84.34
2023-03-31T08:53:46.294Z,84.17
2023-03-31T08:54:56.733Z,84.40
2023-03-31T08:55:59.670Z,84.85
2023-03-31T08:57:06.338Z,84.98
2023-03-31T08:58:21.090Z,84.96
2023-03-31T08:59:29.232Z,84.94
2023-03-31T09:00:45.488Z,84.82
2023-03-31T09:02:00.926Z,84.53
2023-03-31T09:03:16.503Z,84.33
2023-03-31T09:04:37.190Z,84.40
2023-03-31T09:05:59.981Z,84.08
2023-03-31T09:07:29.190Z,83.71
2023-03-31T09:08:33.757Z,83.42
2023-03-31T09:09:48.602Z,83.26
2023-03-31T09:10:58.622Z,82.94
2023-03-31T09:12:10.306Z,82.89
2023-03-31T09:13:15.800Z,83.05
2023-03-31T09:14:28.043Z,83.07
2023-03-31T09:16:05.469Z,83.23
2023-03-31T09:17:26.548Z,83.54
2023-03-31T09:18:35.481Z,83.65
2023-03-31T09:19:49.728Z,83.30
2023-03-31T09:20:56.825Z,83.16
2023-03-31T09:22:01.819Z,83.11
2023-03-31T09:23:22.043Z,83.10
2023-03-31T09:24:33.261Z,82.80
2023-03-31T09:25:41.589Z,82.86
2023-03-31T09:26:53.315Z,82.58
2023-03-31T09:27:58.218Z,82.70
2023-03-31T09:29:07.291Z,82.76
2023-03-31T09:30:20.820Z,82.62
2023-03-31T09:31:24.900Z,82.86
2023-03-31T09:32:32.288Z,82.91
2023-03-31T09:33:40.834Z,82.77
2023-03-31T09:34:45.896Z,82.75
2023-03-31T09:35:51.447Z,82.71
2023-03-31T09:36:55.281Z,82.51
2023-03-31T09:37:58.512Z,82.68
2023-03-31T09:39:01.446Z,82.95
2023-03-31T09:40:08.042Z,82.69
2023-03-31T09:41:13.003Z,82.33
2023-03-31T09:42:16.250Z,82.19
2023-03-31T09:43:24.624Z,82.39
2023-03-31T09:44:37.693Z,82.10
2023-03-31T09:45:40.945Z,82.08
2023-03-31T09:46:43.941Z,81.90
2023-03-31T09:47:59.287Z,81.82
2023-03-31T09:49:06.995Z,81.53
2023-03-31T09:50:11.936Z,81.52
2023-03-31T09:51:20.915Z,81.26
2023-03-31T09:52:29.651Z,81.20
2023-03-31T09:53:40.509Z,81.13
2023-03-31T09:54:56.792Z,80.95
2023-03-31T09:56:06.292Z,81.16
2023-03-31T09:57:35.228Z,80.87
2023-03-31T09:58:46.766Z,81.09
2023-03-31T09:59:51.700Z,81.18
2023-03-31T10:00:57.635Z,81.24
2023-03-31T10:02:04.104Z,80.82
2023-03-31T10:03:09.871Z,81.08
2023-03-31T10:04:25.120Z,81.24
2023-03-31T10:05:36.659Z,81.17
2023-03-31T10:06:42.511Z,81.25
2023-03-31T10:07:46.324Z,81.28
2023-03-31T10:08:56.510Z,80.93
2023-03-31T10:09:59.715Z,80.39
2023-03-31T10:11:07.022Z,80.42
2023-03-31T10:12:17.353Z,80.68
2023-03-31T10:13:25.023Z,80.41
2023-03-31T10:14:41.831Z,79.97
2023-03-31T10:15:45.041Z,79.56
2023-03-31T10:16:55.052Z,79.40
2023-03-31T10:17:58.613Z,79.39
2023-03-31T10:19:21.239Z,79.50
2023-03-31T10:20:30.629Z,79.87
2023-03-31T10:21:37.514Z,79.89
2023-03-31T10:22:44.624Z,79.79
2023-03-31T10:23:49.131Z,79.55
2023-03-31T10:24:53.323Z,79.47
2023-03-31T10:25:56.792Z,79.59
2023-03-31T10:26:59.700Z,79.47
2023-03-31T10:28:03.415Z,79.55
2023-03-31T10:29:13.044Z,79.28
2023-03-31T10:30:24.697Z,79.36
2023-03-31T10:31:36.072Z,78.92
2023-03-31T10:32:43.347Z,79.27
2023-03-31T10:33:51.498Z,79.51
2023-03-31T10:34:56.354Z,79.71
2023-03-31T10:36:01.508Z,79.68
2023-03-31T10:37:04.913Z,79.68
2023-03-31T10:38:14.445Z,79.40
2023-03-31T10:39:17.854Z,78.90
2023-03-31T10:40:32.132Z,78.83
2023-03-31T10:41:35.419Z,79.09
2023-03-31T10:42:38.568Z,78.86
2023-03-31T10:43:50.391Z,78.68
2023-03-31T10:45:33.639Z,78.75
2023-03-31T10:46:52.915Z,78.48
2023-03-31T10:47:59.680Z,78.57
2023-03-31T10:49:24.175Z,78.81
2023-03-31T10:50:35.661Z,78.47
2023-03-31T10:51:49.857Z,78.15
2023-03-31T10:52:53.092Z,78.35
2023-03-31T10:54:01.264Z,78.19
2023-03-31T10:55:04.406Z,78.31
2023-03-31T10:56:19.927Z,78.22
2023-03-31T10:57:41.167Z,78.34
2023-03-31T10:59:21.894Z,77.80
2023-03-31T11:00:32.944Z,77.21
2023-03-31T11:01:36.718Z,77.26
2023-03-31T11:03:33.158Z,76.80
2023-03-31T11:05:13.569Z,76.55
2023-03-31T11:06:57.053Z,76.57
2023-03-31T11:08:22.198Z,76.92
2023-03-31T11:09:40.103Z,76.97
2023-03-31T11:10:49.120Z,76.76
2023-03-31T11:12:13.435Z,76.77
2023-03-31T11:13:33.976Z,77.05
2023-03-31T11:14:42.491Z,77.07
2023-03-31T11:15:57.513Z,76.73
2023-03-31T11:17:14.514Z,76.41
2023-03-31T11:18:36.116Z,76.03
2023-03-31T11:20:25.642Z,75.49
2023-03-31T11:21:43.708Z,75.65
2023-03-31T11:23:02.457Z,75.81
2023-03-31T11:24:07.990Z,75.82
2023-03-31T11:25:26.060Z,75.67
2023-03-31T11:26:40.768Z,75.83
2023-03-31T11:27:55.486Z,75.89
2023-03-31T11:29:04.022Z,75.91
2023-03-31T11:30:33.126Z,75.74
2023-03-31T11:31:48.887Z,75.40
2023-03-31T11:33:24.422Z,75.29
2023-03-31T11:34:45.991Z,75.37
2023-03-31T11:36:05.410Z,75.18
2023-03-31T11:37:41.617Z,74.64
2023-03-31T11:38:50.802Z,74.87
2023-03-31T11:40:19.663Z,74.56
2023-03-31T11:41:45.583Z,74.46
2023-03-31T11:42:51.031Z,74.92
2023-03-31T11:44:00.134Z,74.75
2023-03-31T11:45:17.961Z,74.80
2023-03-31T11:46:25.711Z,75.06
2023-03-31T11:47:33.999Z,75.36
2023-03-31T11:48:59.902Z,75.30
2023-03-31T11:50:28.966Z,75.02
2023-03-31T11:51:50.900Z,75.02
2023-03-31T11:53:00.534Z,75.01
2023-03-31T11:54:06.571Z,75.02
2023-03-31T11:55:18.257Z,74.92
2023-03-31T11:56:22.809Z,74.66
2023-03-31T11:57:33.584Z,74.73
2023-03-31T11:58:47.639Z,74.66
2023-03-31T11:59:58.960Z,74.69
2023-03-31T12:01:21.121Z,74.72
2023-03-31T12:02:30.010Z,74.86
2023-03-31T12:03:53.567Z,74.89
2023-03-31T12:04:58.466Z,74.80
2023-03-31T12:06:17.423Z,75.07
2023-03-31T12:07:24.013Z,75.21
2023-03-31T12:08:42.801Z,75.09
2023-03-31T12:10:18.324Z,74.90
2023-03-31T12:11:29.530Z,74.24
2023-03-31T12:12:38.878Z,73.43
2023-03-31T12:14:03.087Z,73.19
2023-03-31T12:15:09.139Z,72.30
2023-03-31T12:16:23.208Z,72.15
2023-03-31T12:17:27.771Z,72.24
2023-03-31T12:18:36.993Z,71.78
2023-03-31T12:20:00.575Z,71.96
2023-03-31T12:21:05.601Z,71.57
2023-03-31T12:22:40.018Z,71.41
2023-03-31T12:23:46.583Z,71.00
2023-03-31T12:24:49.568Z,71.17
2023-03-31T12:26:23.908Z,70.86
2023-03-31T12:27:43.988Z,70.05
2023-03-31T12:28:49.236Z,70.27
2023-03-31T12:29:59.768Z,70.67
2023-03-31T12:31:05.611Z,70.49
2023-03-31T12:32:17.810Z,70.17
2023-03-31T12:33:27.785Z,70.00
2023-03-31T12:34:33.061Z,69.93
2023-03-31T12:35:48.837Z,70.02
2023-03-31T12:37:23.126Z,69.62
2023-03-31T12:38:46.977Z,69.98
2023-03-31T12:40:11.772Z,70.21
2023-03-31T12:41:24.516Z,70.55
2023-03-31T12:42:38.048Z,70.81
2023-03-31T12:44:21.525Z,70.73
2023-03-31T12:45:32.043Z,70.35
2023-03-31T12:46:50.132Z,70.17
2023-03-31T12:48:11.735Z,70.06
2023-03-31T12:49:33.175Z,70.11
2023-03-31T12:50:53.964Z,69.78
2023-03-31T12:51:56.738Z,70.04
2023-03-31T12:53:50.598Z,70.06
2023-03-31T12:55:03.251Z,70.29
2023-03-31T12:56:06.813Z,70.34
2023-03-31T12:57:09.933Z,70.14
2023-03-31T12:58:25.185Z,70.28
2023-03-31T12:59:38.960Z,70.28
2023-03-31T13:01:11.803Z,70.27
2023-03-31T13:02:15.447Z,70.25
2023-03-31T13:03:40.948Z,70.38
2023-03-31T13:04:44.557Z,70.43
2023-03-31T13:05:48.336Z,70.75
2023-03-31T13:06:57.239Z,70.98
2023-03-31T13:08:00.279Z,70.79
2023-03-31T13:09:15.029Z,70.89
2023-03-31T13:10:17.982Z,70.79
2023-03-31T13:11:38.063Z,71.19
2023-03-31T13:12:41.198Z,71.46
2023-03-31T13:14:00.853Z,71.90
2023-03-31T13:15:05.644Z,72.32
2023-03-31T13:16:09.056Z,72.85
2023-03-31T13:17:30.889Z,73.81
2023-03-31T13:18:34.401Z,74.35
2023-03-31T13:19:39.951Z,74.58
2023-03-31T13:20:43.155Z,74.67
2023-03-31T13:21:56.707Z,74.83
2023-03-31T13:23:03.435Z,74.98
2023-03-31T13:24:07.376Z,75.01
2023-03-31T13:25:40.085Z,74.95
2023-03-31T13:26:47.528Z,74.94
2023-03-31T13:27:50.935Z,74.89
2023-03-31T13:29:20.186Z,74.89
2023-03-31T13:30:44.201Z,74.61
2023-03-31T13:32:02.448Z,74.48
2023-03-31T13:33:10.271Z,74.62
2023-03-31T13:34:13.388Z,74.65
2023-03-31T13:35:28.139Z,74.40
2023-03-31T13:36:33.872Z,74.23
2023-03-31T13:37:58.207Z,74.28
2023-03-31T13:39:16.781Z,74.15
2023-03-31T13:40:19.803Z,74.11
2023-03-31T13:41:43.610Z,74.42
2023-03-31T13:43:29.175Z,74.10
2023-03-31T13:45:13.502Z,73.82
2023-03-31T13:46:42.174Z,73.86
2023-03-31T13:48:15.223Z,73.32
2023-03-31T13:49:41.787Z,73.38
2023-03-31T13:51:26.608Z,73.46
2023-03-31T13:53:14.054Z,73.54
2023-03-31T13:54:35.498Z,73.33
2023-03-31T13:55:59.250Z,73.40
2023-03-31T13:57:20.795Z,73.17
2023-03-31T13:58:38.794Z,73.52
2023-03-31T13:59:47.394Z,73.49
2023-03-31T14:01:20.172Z,73.46
2023-03-31T14:02:44.936Z,73.31
2023-03-31T14:04:12.518Z,73.23
2023-03-31T14:05:24.746Z,73.31
2023-03-31T14:06:35.858Z,73.25
2023-03-31T14:07:46.112Z,72.91
2023-03-31T14:08:57.436Z,72.73
2023-03-31T14:10:00.674Z,72.69
2023-03-31T14:11:24.008Z,72.85
2023-03-31T14:12:39.430Z,72.49
2023-03-31T14:13:42.998Z,72.49
2023-03-31T14:14:53.384Z,72.50
2023-03-31T14:15:58.723Z,72.29
2023-03-31T14:17:03.542Z,72.08
2023-03-31T14:18:07.624Z,72.02
2023-03-31T14:19:37.693Z,71.82
2023-03-31T14:20:52.440Z,71.80
2023-03-31T14:22:19.816Z,71.88
2023-03-31T14:23:38.525Z,71.76
2023-03-31T14:25:03.313Z,71.89
2023-03-31T14:26:30.615Z,71.83
2023-03-31T14:27:39.270Z,71.88
2023-03-31T14:29:13.785Z,71.90
2023-03-31T14:30:30.334Z,71.87
2023-03-31T14:32:03.336Z,71.91
2023-03-31T14:33:21.982Z,72.09
2023-03-31T14:34:30.929Z,72.15
2023-03-31T14:35:54.364Z,72.07
2023-03-31T14:37:08.399Z,72.07
2023-03-31T14:38:18.179Z,72.26
2023-03-31T14:39:22.481Z,72.26
2023-03-31T14:40:25.905Z,72.27
2023-03-31T14:41:32.347Z,72.51
2023-03-31T14:42:43.045Z,72.83
2023-03-31T14:43:51.268Z,72.63
2023-03-31T14:45:01.883Z,72.57
2023-03-31T14:46:07.208Z,72.69
2023-03-31T14:47:24.527Z,72.70
2023-03-31T14:48:30.153Z,72.52
2023-03-31T14:49:38.992Z,72.59
2023-03-31T14:50:46.890Z,72.70
2023-03-31T14:51:53.367Z,72.82
2023-03-31T14:52:56.551Z,72.79
2023-03-31T14:54:01.662Z,72.67
2023-03-31T14:55:05.309Z,72.78
2023-03-31T14:56:12.466Z,72.68
2023-03-31T14:57:21.595Z,72.78
2023-03-31T14:58:29.164Z,72.86
2023-03-31T14:59:35.941Z,72.79
2023-03-31T15:00:40.954Z,72.91
2023-03-31T15:01:48.505Z,72.82